createdAt,value
2023-01-11T00:01:04.639Z,6.20
2023-01-11T00:03:32.744Z,6.88
2023-01-11T00:06:01.207Z,6.20
2023-01-11T00:08:30.227Z,6.40
2023-01-11T00:10:58.137Z,6.40
2023-01-11T00:13:25.647Z,5.88
2023-01-11T00:15:53.934Z,5.63
2023-01-11T00:18:21.915Z,6.78
2023-01-11T00:20:50.023Z,6.00
2023-01-11T00:23:17.517Z,6.30
2023-01-11T00:25:47.014Z,5.72
2023-01-11T00:28:14.737Z,6.18
2023-01-11T00:30:42.919Z,5.82
2023-01-11T00:33:11.357Z,5.30
2023-01-11T00:35:39.482Z,4.85
2023-01-11T00:38:07.114Z,4.80
2023-01-11T00:40:35.070Z,5.72
2023-01-11T00:43:03.989Z,4.53
2023-01-11T00:45:32.078Z,5.07
2023-01-11T00:47:59.697Z,5.35
2023-01-11T00:50:29.784Z,4.90
2023-01-11T00:52:58.494Z,4.30
2023-01-11T00:55:27.280Z,4.35
2023-01-11T00:57:55.125Z,4.10
2023-01-11T01:00:25.675Z,4.55
2023-01-11T01:02:53.299Z,4.55
2023-01-11T01:05:21.309Z,5.00
2023-01-11T01:07:48.999Z,4.63
2023-01-11T01:10:17.844Z,4.47
2023-01-11T01:12:45.834Z,4.65
2023-01-11T01:15:13.832Z,4.25
2023-01-11T01:17:42.928Z,4.30
2023-01-11T01:20:13.465Z,4.10
2023-01-11T01:22:41.489Z,4.30
2023-01-11T01:25:09.687Z,3.63
2023-01-11T01:27:37.429Z,3.60
2023-01-11T01:30:06.802Z,4.40
2023-01-11T01:32:34.394Z,3.65
2023-01-11T01:35:05.025Z,4.53
2023-01-11T01:37:32.906Z,4.30
2023-01-11T01:40:01.691Z,3.67
2023-01-11T01:42:29.275Z,4.78
2023-01-11T01:45:04.299Z,4.55
2023-01-11T01:47:37.603Z,4.15
2023-01-11T01:50:14.773Z,3.63
2023-01-11T01:52:46.631Z,3.33
2023-01-11T01:55:21.574Z,4.07
2023-01-11T01:57:50.540Z,3.63
2023-01-11T02:00:19.256Z,3.85
2023-01-11T02:02:47.061Z,3.97
2023-01-11T02:05:17.450Z,3.00
2023-01-11T02:07:46.605Z,2.95
2023-01-11T02:10:18.106Z,3.30
2023-01-11T02:12:50.703Z,3.97
2023-01-11T02:15:21.824Z,3.53
2023-01-11T02:17:49.383Z,3.30
2023-01-11T02:20:43.160Z,3.55
2023-01-11T02:23:36.712Z,3.40
2023-01-11T02:26:29.074Z,3.03
2023-01-11T02:31:34.773Z,3.08
2023-01-11T02:34:16.094Z,3.28
2023-01-11T02:36:57.190Z,3.70
2023-01-11T02:39:37.988Z,3.78
2023-01-11T02:42:12.640Z,2.83
2023-01-11T02:44:52.869Z,3.28
2023-01-11T02:47:29.764Z,3.60
2023-01-11T02:50:07.583Z,2.60
2023-01-11T02:52:43.694Z,2.55
2023-01-11T02:55:15.186Z,2.95
2023-01-11T02:57:44.966Z,3.13
2023-01-11T03:00:17.134Z,2.58
2023-01-11T03:02:44.994Z,3.15
2023-01-11T03:05:14.023Z,3.10
2023-01-11T03:07:55.081Z,3.35
2023-01-11T03:10:34.928Z,3.85
2023-01-11T03:13:13.040Z,3.20
2023-01-11T03:16:03.731Z,3.60
2023-01-11T03:18:41.910Z,2.88
2023-01-11T03:21:19.725Z,4.78
2023-01-11T03:23:58.876Z,5.10
2023-01-11T03:26:34.258Z,5.97
2023-01-11T03:29:11.251Z,5.25
2023-01-11T03:31:46.536Z,4.28
2023-01-11T03:34:19.842Z,5.90
2023-01-11T03:36:52.699Z,4.47
2023-01-11T03:39:25.453Z,5.53
2023-01-11T03:41:57.060Z,6.43
2023-01-11T03:44:27.010Z,6.53
2023-01-11T03:47:01.101Z,5.47
2023-01-11T03:49:33.439Z,5.28
2023-01-11T03:52:04.645Z,6.05
2023-01-11T03:54:33.840Z,5.78
2023-01-11T03:57:06.313Z,6.65
2023-01-11T04:02:03.656Z,4.55
2023-01-11T04:04:32.051Z,5.40
2023-01-11T04:06:59.479Z,6.57
2023-01-11T04:09:27.739Z,4.93
2023-01-11T04:11:55.191Z,7.05
2023-01-11T04:14:23.750Z,6.03
2023-01-11T04:16:51.219Z,4.95
2023-01-11T04:19:20.687Z,4.40
2023-01-11T04:21:48.277Z,5.45
2023-01-11T04:24:16.609Z,4.03
2023-01-11T04:26:44.793Z,5.60
2023-01-11T04:29:12.946Z,4.35
2023-01-11T04:31:40.631Z,5.82
2023-01-11T04:34:09.056Z,6.57
2023-01-11T04:36:41.378Z,4.43
2023-01-11T04:39:09.465Z,6.32
2023-01-11T04:41:40.528Z,4.30
2023-01-11T04:44:08.643Z,5.28
2023-01-11T04:46:36.064Z,4.68
2023-01-11T04:49:04.168Z,5.93
2023-01-11T04:51:31.831Z,5.43
2023-01-11T04:54:01.387Z,5.85
2023-01-11T04:56:28.957Z,5.30
2023-01-11T04:58:56.917Z,4.53
2023-01-11T05:01:24.903Z,4.68
2023-01-11T05:03:52.982Z,4.60
2023-01-11T05:06:20.882Z,5.03
2023-01-11T05:08:49.475Z,4.40
2023-01-11T05:11:18.590Z,5.93
2023-01-11T05:13:46.356Z,4.55
2023-01-11T05:16:15.399Z,5.28
2023-01-11T05:18:45.032Z,4.60
2023-01-11T05:21:14.063Z,3.85
2023-01-11T05:23:43.707Z,4.85
2023-01-11T05:26:12.742Z,3.70
2023-01-11T05:28:42.074Z,4.90
2023-01-11T05:31:09.602Z,5.18
2023-01-11T05:33:37.472Z,4.78
2023-01-11T05:36:08.010Z,3.88
2023-01-11T05:38:36.250Z,5.63
2023-01-11T05:41:05.782Z,4.60
2023-01-11T05:43:34.582Z,3.50
2023-01-11T05:46:03.759Z,4.72
2023-01-11T05:48:32.009Z,2.78
2023-01-11T05:51:01.453Z,5.25
2023-01-11T05:53:29.549Z,4.97
2023-01-11T05:55:58.761Z,5.07
2023-01-11T05:58:27.610Z,5.65
2023-01-11T06:00:56.127Z,3.05
2023-01-11T06:03:26.271Z,3.85
2023-01-11T06:05:53.795Z,5.93
2023-01-11T06:08:22.039Z,6.38
2023-01-11T06:10:51.891Z,4.93
2023-01-11T06:13:20.281Z,5.80
2023-01-11T06:15:47.875Z,5.85
2023-01-11T06:18:15.814Z,4.82
2023-01-11T06:20:48.362Z,5.80
2023-01-11T06:23:16.403Z,5.22
2023-01-11T06:25:45.342Z,4.57
2023-01-11T06:28:14.386Z,4.32
2023-01-11T06:30:42.182Z,4.80
2023-01-11T06:33:10.139Z,5.85
2023-01-11T06:35:39.107Z,4.28
2023-01-11T06:38:11.037Z,4.25
2023-01-11T06:40:40.284Z,4.93
2023-01-11T06:43:09.665Z,3.00
2023-01-11T06:45:37.638Z,3.90
2023-01-11T06:48:06.076Z,3.78
2023-01-11T06:50:33.638Z,3.97
2023-01-11T06:53:04.451Z,4.70
2023-01-11T06:55:33.418Z,4.30
2023-01-11T06:58:03.805Z,3.75
2023-01-11T07:00:31.731Z,4.57
2023-01-11T07:03:02.558Z,4.28
2023-01-11T07:05:30.531Z,3.47
2023-01-11T07:07:58.469Z,2.78
2023-01-11T07:10:26.063Z,4.03
2023-01-11T07:12:55.718Z,2.97
2023-01-11T07:15:23.488Z,3.13
2023-01-11T07:17:54.624Z,3.70
2023-01-11T07:20:23.006Z,2.75
2023-01-11T07:22:51.114Z,2.58
2023-01-11T07:25:19.008Z,3.17
2023-01-11T07:27:47.683Z,2.90
2023-01-11T07:30:22.674Z,2.35
2023-01-11T07:32:57.505Z,2.30
2023-01-11T07:35:29.787Z,2.65
2023-01-11T07:38:02.949Z,1.92
2023-01-11T07:40:30.627Z,1.90
2023-01-11T07:42:58.520Z,2.00
2023-01-11T07:45:37.368Z,2.10
2023-01-11T07:48:13.005Z,2.38
2023-01-11T07:50:44.203Z,2.03
2023-01-11T07:53:13.784Z,2.20
2023-01-11T07:55:42.084Z,2.10
2023-01-11T07:58:11.602Z,1.90
2023-01-11T08:00:41.313Z,2.05
2023-01-11T08:03:10.186Z,2.17
2023-01-11T08:05:37.815Z,2.50
2023-01-11T08:08:13.521Z,1.67
2023-01-11T08:10:42.162Z,1.50
2023-01-11T08:13:12.646Z,2.10
2023-01-11T08:15:41.573Z,2.00
2023-01-11T08:18:10.518Z,2.20
2023-01-11T08:20:38.204Z,1.65
2023-01-11T08:23:08.545Z,1.77
2023-01-11T08:25:36.104Z,2.35
2023-01-11T08:28:06.672Z,2.15
2023-01-11T08:30:35.008Z,2.20
2023-01-11T08:33:10.506Z,2.00
2023-01-11T08:35:39.323Z,2.30
2023-01-11T08:38:08.170Z,1.88
2023-01-11T08:40:36.163Z,2.50
2023-01-11T08:43:04.092Z,2.20
2023-01-11T08:45:31.549Z,2.17
2023-01-11T08:48:00.433Z,2.33
2023-01-11T08:50:29.399Z,2.35
2023-01-11T08:52:57.222Z,2.50
2023-01-11T08:55:24.763Z,3.60
2023-01-11T08:57:52.525Z,2.53
2023-01-11T09:00:22.130Z,2.60
2023-01-11T09:02:50.093Z,2.40
2023-01-11T09:05:18.436Z,2.60
2023-01-11T09:08:22.878Z,2.33
2023-01-11T09:11:07.500Z,2.67
2023-01-11T09:13:39.877Z,2.50
2023-01-11T09:16:34.792Z,2.30
2023-01-11T09:19:13.969Z,3.30
2023-01-11T09:21:43.828Z,2.25
2023-01-11T09:24:13.664Z,2.53
2023-01-11T09:26:41.375Z,2.20
2023-01-11T09:29:09.717Z,2.60
2023-01-11T09:31:37.460Z,2.28
2023-01-11T09:34:05.823Z,2.40
2023-01-11T09:36:33.426Z,2.38
2023-01-11T09:39:01.406Z,2.63
2023-01-11T09:41:40.925Z,2.58
2023-01-11T09:44:14.643Z,2.00
2023-01-11T09:46:45.582Z,2.08
2023-01-11T09:49:17.543Z,1.90
2023-01-11T09:51:46.547Z,1.40
2023-01-11T09:54:18.708Z,2.45
2023-01-11T09:56:56.287Z,2.17
2023-01-11T09:59:32.560Z,2.10
2023-01-11T10:02:03.301Z,2.40
2023-01-11T10:04:48.971Z,2.70
2023-01-11T10:07:34.983Z,2.50
2023-01-11T10:18:33.611Z,2.20
2023-01-11T10:21:59.303Z,2.33
2023-01-11T10:24:30.442Z,1.58
2023-01-11T10:27:01.692Z,2.33
2023-01-11T10:29:36.969Z,2.83
2023-01-11T10:32:13.769Z,2.10
2023-01-11T10:34:44.686Z,2.15
2023-01-11T10:37:15.489Z,2.13
2023-01-11T10:39:48.827Z,2.13
2023-01-11T10:42:21.381Z,2.53
2023-01-11T10:44:57.767Z,2.05
2023-01-11T10:47:29.540Z,2.10
2023-01-11T10:50:05.945Z,2.08
2023-01-11T10:52:40.481Z,1.70
2023-01-11T10:55:16.666Z,2.72
2023-01-11T10:58:01.950Z,2.53
2023-01-11T11:00:44.971Z,2.20
2023-01-11T11:03:39.509Z,2.22
2023-01-11T11:06:13.779Z,1.92
2023-01-11T11:08:47.451Z,2.10
2023-01-11T11:11:20.566Z,1.98
2023-01-11T11:13:56.402Z,1.48
2023-01-11T11:16:46.474Z,1.98
2023-01-11T11:19:20.133Z,1.35
2023-01-11T11:21:48.980Z,1.58
2023-01-11T11:24:23.032Z,2.20
2023-01-11T11:26:58.252Z,2.42
2023-01-11T11:29:26.509Z,2.20
2023-01-11T11:31:57.340Z,2.00
2023-01-11T11:34:26.730Z,1.38
2023-01-11T11:36:58.499Z,1.70
2023-01-11T11:39:28.200Z,1.60
2023-01-11T11:41:57.478Z,1.92
2023-01-11T11:44:27.480Z,1.85
2023-01-11T11:47:01.926Z,1.70
2023-01-11T11:49:31.536Z,2.85
2023-01-11T11:52:00.179Z,1.65
2023-01-11T11:54:32.208Z,1.67
2023-01-11T11:57:12.140Z,1.73
2023-01-11T11:59:45.548Z,1.55
2023-01-11T12:02:23.932Z,1.27
2023-01-11T12:04:53.492Z,0.95
2023-01-11T12:07:24.404Z,1.77
2023-01-11T12:09:59.927Z,1.10
2023-01-11T12:12:29.555Z,1.15
2023-01-11T12:15:19.825Z,1.63
2023-01-11T12:17:50.202Z,1.60
2023-01-11T12:20:33.325Z,1.33
2023-01-11T12:23:18.502Z,1.23
2023-01-11T12:26:03.856Z,1.13
2023-01-11T12:28:54.669Z,1.67
2023-01-11T12:31:33.078Z,1.60
2023-01-11T12:34:16.254Z,1.23
2023-01-11T12:36:55.399Z,1.55
2023-01-11T12:42:21.537Z,1.50
2023-01-11T12:45:02.981Z,1.40
2023-01-11T12:48:09.511Z,1.17
2023-01-11T12:50:49.563Z,1.70
2023-01-11T12:53:30.660Z,1.10
2023-01-11T12:56:19.477Z,1.25
2023-01-11T12:58:56.138Z,18.63
2023-01-11T13:01:42.204Z,2.10
2023-01-11T13:04:42.897Z,1.50
2023-01-11T13:07:24.643Z,1.52
2023-01-11T13:10:05.349Z,1.67
2023-01-11T13:12:42.517Z,1.67
2023-01-11T13:15:24.313Z,1.60
2023-01-11T13:17:58.907Z,1.30
2023-01-11T13:20:48.612Z,1.88
2023-01-11T13:26:05.869Z,2.28
2023-01-11T13:28:37.618Z,1.80
2023-01-11T13:31:10.638Z,2.00
2023-01-11T13:36:22.589Z,1.70
2023-01-11T13:38:58.220Z,1.40
2023-01-11T13:41:32.327Z,1.45
2023-01-11T13:44:06.461Z,1.60
2023-01-11T13:46:48.853Z,1.65
2023-01-11T13:49:29.386Z,1.98
2023-01-11T13:52:00.268Z,1.75
2023-01-11T13:54:38.811Z,1.67
2023-01-11T13:57:13.303Z,1.95
2023-01-11T13:59:44.324Z,1.90
2023-01-11T14:02:17.981Z,1.60
2023-01-11T14:04:52.774Z,1.40
2023-01-11T14:07:35.393Z,2.78
2023-01-11T14:10:31.547Z,3.10
2023-01-11T14:13:27.208Z,3.50
2023-01-11T14:15:59.425Z,3.22
2023-01-11T14:18:34.317Z,2.50
2023-01-11T14:21:09.267Z,2.17
2023-01-11T14:23:45.508Z,2.70
2023-01-11T14:26:52.533Z,2.22
2023-01-11T14:29:37.382Z,1.90
2023-01-11T14:32:28.992Z,1.55
2023-01-11T14:35:36.531Z,1.63
2023-01-11T14:38:32.577Z,2.28
2023-01-11T14:41:39.644Z,2.40
2023-01-11T14:44:22.631Z,1.35
2023-01-11T14:47:07.811Z,1.48
2023-01-11T14:49:51.008Z,1.48
2023-01-11T14:52:38.499Z,1.83
2023-01-11T14:55:16.331Z,1.70
2023-01-11T14:57:59.633Z,1.92
2023-01-11T15:01:03.749Z,1.77
2023-01-11T15:03:56.592Z,2.08
2023-01-11T15:06:24.582Z,2.30
2023-01-11T15:08:54.836Z,2.35
2023-01-11T15:11:39.854Z,2.63
2023-01-11T15:14:26.474Z,2.70
2023-01-11T15:16:58.561Z,2.97
2023-01-11T15:19:33.756Z,3.25
2023-01-11T15:22:04.740Z,3.63
2023-01-11T15:24:35.735Z,3.05
2023-01-11T15:27:04.051Z,3.22
2023-01-11T15:29:33.813Z,2.45
2023-01-11T15:32:16.752Z,2.67
2023-01-11T15:34:48.749Z,2.35
2023-01-11T15:37:36.800Z,2.55
2023-01-11T15:40:14.380Z,3.03
2023-01-11T15:43:14.015Z,3.30
2023-01-11T15:46:10.961Z,3.15
2023-01-11T15:48:57.562Z,2.67
2023-01-11T15:51:50.579Z,3.10
2023-01-11T15:54:53.280Z,3.20
2023-01-11T15:57:54.042Z,2.50
2023-01-11T16:01:02.683Z,3.17
2023-01-11T16:03:49.864Z,5.70
2023-01-11T16:06:26.837Z,7.22
2023-01-11T16:09:09.943Z,10.27
2023-01-11T16:11:44.641Z,8.40
2023-01-11T16:14:34.258Z,6.07
2023-01-11T16:17:03.025Z,5.43
2023-01-11T16:19:35.460Z,3.50
2023-01-11T16:22:03.976Z,4.53
2023-01-11T16:24:43.095Z,3.35
2023-01-11T16:27:25.751Z,2.80
2023-01-11T16:29:54.741Z,2.83
2023-01-11T16:32:24.272Z,3.20
2023-01-11T16:34:52.970Z,3.15
2023-01-11T16:37:29.522Z,4.13
2023-01-11T16:40:05.359Z,4.70
2023-01-11T16:42:35.888Z,5.15
2023-01-11T16:45:07.899Z,4.80
2023-01-11T16:47:35.724Z,4.60
2023-01-11T16:50:21.793Z,5.20
2023-01-11T16:52:53.392Z,5.22
2023-01-11T16:55:38.856Z,4.95
2023-01-11T16:58:17.472Z,3.85
2023-01-11T17:00:57.841Z,4.18
2023-01-11T17:03:27.244Z,3.42
2023-01-11T17:06:14.739Z,3.42
2023-01-11T17:08:43.907Z,3.33
2023-01-11T17:11:23.439Z,3.30
2023-01-11T17:14:29.261Z,3.33
2023-01-11T17:17:00.366Z,3.35
2023-01-11T17:19:30.279Z,3.83
2023-01-11T17:22:03.743Z,3.88
2023-01-11T17:24:37.194Z,4.38
2023-01-11T17:27:09.219Z,3.88
2023-01-11T17:29:40.315Z,3.53
2023-01-11T17:32:16.108Z,4.45
2023-01-11T17:34:44.559Z,3.58
2023-01-11T17:37:14.921Z,3.17
2023-01-11T17:39:45.704Z,3.38
2023-01-11T17:42:15.874Z,3.13
2023-01-11T17:44:44.971Z,3.10
2023-01-11T17:47:13.267Z,3.58
2023-01-11T17:49:41.009Z,3.40
2023-01-11T17:52:20.544Z,3.38
2023-01-11T17:57:29.342Z,2.97
2023-01-11T18:00:16.555Z,3.28
2023-01-11T18:02:45.013Z,3.22
2023-01-11T18:05:17.856Z,3.22
2023-01-11T18:07:51.329Z,3.50
2023-01-11T18:10:21.470Z,3.88
2023-01-11T18:12:51.931Z,3.00
2023-01-11T18:15:25.899Z,3.55
2023-01-11T18:17:54.377Z,3.85
2023-01-11T18:20:34.643Z,3.45
2023-01-11T18:23:05.366Z,2.85
2023-01-11T18:25:34.724Z,3.33
2023-01-11T18:28:35.656Z,3.20
2023-01-11T18:31:03.396Z,3.67
2023-01-11T18:33:33.599Z,3.38
2023-01-11T18:36:03.029Z,3.35
2023-01-11T18:38:32.710Z,3.80
2023-01-11T18:41:03.940Z,3.10
2023-01-11T18:43:34.056Z,3.00
2023-01-11T18:46:01.732Z,3.35
2023-01-11T18:48:30.538Z,2.78
2023-01-11T18:50:58.626Z,2.40
2023-01-11T18:53:27.101Z,2.72
2023-01-11T18:55:54.957Z,2.33
2023-01-11T18:58:23.021Z,2.30
2023-01-11T19:00:51.840Z,3.15
2023-01-11T19:03:19.800Z,3.03
2023-01-11T19:05:47.360Z,3.00
2023-01-11T19:08:15.224Z,3.53
2023-01-11T19:10:42.661Z,3.60
2023-01-11T19:13:10.856Z,3.40
2023-01-11T19:15:38.397Z,3.78
2023-01-11T19:18:07.741Z,3.75
2023-01-11T19:20:36.402Z,3.22
2023-01-11T19:23:04.346Z,3.45
2023-01-11T19:25:31.752Z,2.95
2023-01-11T19:27:59.708Z,4.22
2023-01-11T19:30:27.099Z,4.25
2023-01-11T19:32:55.398Z,3.78
2023-01-11T19:35:24.637Z,3.70
2023-01-11T19:37:52.678Z,4.07
2023-01-11T19:43:04.839Z,3.88
2023-01-11T19:45:32.323Z,4.45
2023-01-11T19:48:00.215Z,4.18
2023-01-11T19:50:29.087Z,4.45
2023-01-11T19:52:57.217Z,4.50
2023-01-11T19:55:25.131Z,4.72
2023-01-11T19:57:53.213Z,4.65
2023-01-11T20:00:21.082Z,4.78
2023-01-11T20:02:49.604Z,5.63
2023-01-11T20:05:17.522Z,5.70
2023-01-11T20:07:47.105Z,5.32
2023-01-11T20:10:14.769Z,5.20
2023-01-11T20:12:42.823Z,5.63
2023-01-11T20:15:11.598Z,5.53
2023-01-11T20:17:39.511Z,5.78
2023-01-11T20:20:08.479Z,5.25
2023-01-11T20:22:36.475Z,4.57
2023-01-11T20:25:06.783Z,5.10
2023-01-11T20:27:34.711Z,5.60
2023-01-11T20:30:02.235Z,4.47
2023-01-11T20:32:41.566Z,5.25
2023-01-11T20:35:11.504Z,5.47
2023-01-11T20:37:40.046Z,4.20
2023-01-11T20:40:11.880Z,5.88
2023-01-11T20:42:41.679Z,4.35
2023-01-11T20:45:10.482Z,4.93
2023-01-11T20:47:39.196Z,5.47
2023-01-11T20:50:07.855Z,4.72
2023-01-11T20:52:35.909Z,5.07
2023-01-11T20:55:04.119Z,5.40
2023-01-11T20:57:34.424Z,5.60
2023-01-11T21:00:02.108Z,5.72
2023-01-11T21:02:30.038Z,4.30
2023-01-11T21:04:57.882Z,5.10
2023-01-11T21:07:26.430Z,5.50
2023-01-11T21:09:54.288Z,5.85
2023-01-11T21:12:22.472Z,5.50
2023-01-11T21:14:52.035Z,4.85
2023-01-11T21:17:20.327Z,5.82
2023-01-11T21:19:47.903Z,5.78
2023-01-11T21:22:16.614Z,5.88
2023-01-11T21:24:44.458Z,6.47
2023-01-11T21:27:13.117Z,6.85
2023-01-11T21:29:41.111Z,6.53
2023-01-11T21:32:11.128Z,6.78
2023-01-11T21:34:38.715Z,6.72
2023-01-11T21:37:07.087Z,7.10
2023-01-11T21:39:34.784Z,7.28
2023-01-11T21:42:03.475Z,6.88
2023-01-11T21:44:33.256Z,5.85
2023-01-11T21:47:03.046Z,5.57
2023-01-11T21:49:33.277Z,5.82
2023-01-11T21:52:01.622Z,5.63
2023-01-11T21:54:29.324Z,5.82
2023-01-11T21:56:57.681Z,5.20
2023-01-11T21:59:25.526Z,5.30
2023-01-11T22:01:54.072Z,5.25
2023-01-11T22:04:23.204Z,5.63
2023-01-11T22:06:52.770Z,5.95
2023-01-11T22:09:20.948Z,5.00
2023-01-11T22:11:49.324Z,5.43
2023-01-11T22:14:17.046Z,5.50
2023-01-11T22:16:45.151Z,4.57
2023-01-11T22:19:13.402Z,5.93
2023-01-11T22:21:41.566Z,5.05
2023-01-11T22:24:11.389Z,5.60
2023-01-11T22:26:39.658Z,5.38
2023-01-11T22:29:08.680Z,5.35
2023-01-11T22:31:36.972Z,4.32
2023-01-11T22:34:04.970Z,4.65
2023-01-11T22:36:33.317Z,5.40
2023-01-11T22:39:00.878Z,4.32
2023-01-11T22:41:30.686Z,4.25
2023-01-11T22:43:58.324Z,3.55
2023-01-11T22:46:28.159Z,3.83
2023-01-11T22:48:55.643Z,3.70
2023-01-11T22:51:25.366Z,3.50
2023-01-11T22:53:54.510Z,2.85
2023-01-11T22:56:24.151Z,3.65
2023-01-11T22:58:54.090Z,2.67
2023-01-11T23:01:24.003Z,3.15
2023-01-11T23:03:52.448Z,3.33
2023-01-11T23:06:22.502Z,2.83
2023-01-11T23:08:50.951Z,2.83
2023-01-11T23:11:21.526Z,3.03
2023-01-11T23:13:49.113Z,3.25
2023-01-11T23:16:18.767Z,3.15
2023-01-11T23:18:46.221Z,2.63
2023-01-11T23:21:15.172Z,3.45
2023-01-11T23:23:43.099Z,3.15
2023-01-11T23:26:11.358Z,3.40
2023-01-11T23:28:39.516Z,3.72
2023-01-11T23:31:11.778Z,3.85
2023-01-11T23:33:40.666Z,3.20
2023-01-11T23:36:09.198Z,3.30
2023-01-11T23:38:36.684Z,3.35
2023-01-11T23:41:06.078Z,3.63
2023-01-11T23:43:36.557Z,2.97
2023-01-11T23:46:06.516Z,4.28
2023-01-11T23:48:33.963Z,3.72
2023-01-11T23:51:05.511Z,3.60
2023-01-11T23:53:33.144Z,4.10
2023-01-11T23:56:01.207Z,3.88
2023-01-11T23:58:28.626Z,3.85
